Time;durP1;ratioP1;P1;durP2;ratioP2;P2;SDS_P1;SDS_P2;PMS_P1;PMS_P2;Temp;Humidity;BMP_temperature;BMP_pressure;BME280_temperature;BME280_humidity;BME280_pressure;Samples;Min_cycle;Max_cycle;Signal;HPM_P1;HPM_P2
2023/12/27 00:00:04;;;;;;;25.13;15.73;;;4.70;99.90;;;;;;5055813;28;39642;-81
2023/12/27 00:03:25;;;;;;;32.40;18.20;;;4.80;99.90;;;;;;5055291;28;38939;-81
2023/12/27 00:05:51;;;;;;;32.50;16.80;;;4.60;99.90;;;;;;5054003;28;50104;-81
2023/12/27 00:08:22;;;;;;;31.90;18.27;;;4.60;99.90;;;;;;5055158;28;39777;-81
2023/12/27 00:10:48;;;;;;;28.33;15.47;;;4.60;99.90;;;;;;5055204;28;38093;-81
2023/12/27 00:13:15;;;;;;;26.47;14.80;;;4.70;99.90;;;;;;5052753;28;38892;-81
2023/12/27 00:15:45;;;;;;;30.60;18.03;;;4.70;99.90;;;;;;5049068;28;39008;-82
2023/12/27 00:18:11;;;;;;;26.53;15.07;;;4.70;99.90;;;;;;5047999;28;36332;-81
2023/12/27 00:20:47;;;;;;;34.77;16.57;;;4.70;99.90;;;;;;5050313;28;37791;-81
2023/12/27 00:23:14;;;;;;;33.53;16.57;;;4.80;99.90;;;;;;5044027;28;37094;-82
2023/12/27 00:25:43;;;;;;;33.17;16.13;;;4.90;99.90;;;;;;5032328;28;38746;-81
2023/12/27 00:28:09;;;;;;;23.43;14.03;;;4.90;99.90;;;;;;5039001;28;38769;-82
2023/12/27 00:30:36;;;;;;;27.63;15.43;;;4.80;99.90;;;;;;5044132;28;38637;-82
2023/12/27 00:33:02;;;;;;;34.97;15.33;;;4.80;99.90;;;;;;5040141;28;37587;-81
2023/12/27 00:35:29;;;;;;;22.90;13.90;;;4.80;99.90;;;;;;5044533;28;38660;-81
2023/12/27 00:37:55;;;;;;;35.77;15.97;;;4.90;99.90;;;;;;5054721;28;38183;-82
2023/12/27 00:40:22;;;;;;;30.60;14.33;;;4.90;99.90;;;;;;5048292;28;37988;-82
2023/12/27 00:46:11;;;;;;;27.47;13.70;;;5.00;99.90;;;;;;5051244;28;49660;-82
2023/12/27 00:48:39;;;;;;;31.10;14.07;;;5.00;99.90;;;;;;5057101;28;20054;-81
2023/12/27 00:51:16;;;;;;;25.83;13.00;;;5.00;99.90;;;;;;5052630;28;38260;-82
2023/12/27 00:53:42;;;;;;;29.47;14.03;;;5.00;99.90;;;;;;5049890;28;35535;-82
2023/12/27 00:56:08;;;;;;;25.60;12.87;;;5.00;99.90;;;;;;5047974;28;39240;-81
2023/12/27 00:58:35;;;;;;;28.83;12.67;;;5.00;99.90;;;;;;5053778;28;38717;-81
2023/12/27 01:01:02;;;;;;;32.67;13.10;;;5.10;99.90;;;;;;5053290;28;37126;-82
2023/12/27 01:03:43;;;;;;;20.73;11.13;;;5.10;99.90;;;;;;5055300;28;37620;-81
2023/12/27 01:06:24;;;;;;;22.30;11.70;;;5.10;99.90;;;;;;5058985;28;40008;-82
2023/12/27 01:08:53;;;;;;;43.23;15.63;;;5.10;99.90;;;;;;5059096;28;39777;-82
2023/12/27 01:12:01;;;;;;;30.20;12.20;;;5.20;99.90;;;;;;5058317;28;38407;-81
2023/12/27 01:14:29;;;;;;;29.80;13.10;;;5.10;99.90;;;;;;5056474;28;50191;-82
2023/12/27 01:16:56;;;;;;;26.10;12.97;;;5.10;99.90;;;;;;5059930;28;39177;-82
2023/12/27 01:19:50;;;;;;;29.37;12.23;;;5.10;99.90;;;;;;5058731;28;38675;-82
2023/12/27 01:22:17;;;;;;;25.60;11.87;;;5.10;99.90;;;;;;5051570;28;39226;-82
2023/12/27 01:24:43;;;;;;;22.50;11.93;;;5.20;99.90;;;;;;5053377;28;37550;-81
2023/12/27 01:27:24;;;;;;;24.03;12.63;;;5.30;99.90;;;;;;5051388;28;38750;-82
2023/12/27 01:29:53;;;;;;;26.97;12.07;;;5.30;99.90;;;;;;5055975;28;38623;-81
2023/12/27 01:32:20;;;;;;;25.20;12.90;;;5.20;99.90;;;;;;5057575;28;38179;-81
2023/12/27 01:35:11;;;;;;;20.83;12.07;;;5.20;99.90;;;;;;5055846;28;37595;-81
2023/12/27 01:37:46;;;;;;;28.80;13.57;;;5.20;99.90;;;;;;5056874;28;47389;-82
2023/12/27 01:40:15;;;;;;;25.90;12.87;;;5.30;99.90;;;;;;5058267;28;38519;-81
2023/12/27 01:42:41;;;;;;;24.30;11.63;;;5.30;99.90;;;;;;5048991;28;38241;-82
2023/12/27 01:45:07;;;;;;;30.97;13.77;;;5.30;99.90;;;;;;5051134;28;37636;-82
2023/12/27 01:47:44;;;;;;;29.90;12.43;;;5.40;99.90;;;;;;5052192;28;38708;-82
2023/12/27 01:50:21;;;;;;;41.23;15.67;;;5.40;99.90;;;;;;5041028;28;38230;-81
2023/12/27 01:52:58;;;;;;;27.63;11.60;;;5.50;99.90;;;;;;5056077;28;37962;-81
2023/12/27 01:55:24;;;;;;;19.07;11.47;;;5.50;99.90;;;;;;5049007;28;37653;-82
2023/12/27 01:57:50;;;;;;;26.63;12.43;;;5.50;99.90;;;;;;5046383;28;39114;-81
2023/12/27 02:03:12;;;;;;;29.30;13.50;;;5.50;99.90;;;;;;5345947;22;20058;-81
2023/12/27 02:05:39;;;;;;;33.87;14.53;;;5.50;99.90;;;;;;4999888;28;37903;-81
2023/12/27 02:08:08;;;;;;;24.50;12.50;;;5.50;99.90;;;;;;5015514;28;37881;-82
2023/12/27 02:10:34;;;;;;;28.90;14.03;;;5.50;99.90;;;;;;5020367;28;38472;-81
2023/12/27 02:13:05;;;;;;;32.53;14.60;;;5.60;99.90;;;;;;5019586;28;37493;-81
2023/12/27 02:15:31;;;;;;;29.83;15.70;;;5.60;99.90;;;;;;5016685;28;49054;-80
2023/12/27 02:17:59;;;;;;;34.50;14.80;;;5.60;99.90;;;;;;4999981;28;37708;-80
2023/12/27 02:20:26;;;;;;;28.90;13.33;;;5.60;99.90;;;;;;5022374;28;39040;-80
2023/12/27 02:22:57;;;;;;;36.70;17.90;;;5.70;99.90;;;;;;5024799;28;38485;-81
2023/12/27 02:25:23;;;;;;;30.40;15.00;;;5.70;99.90;;;;;;5002138;28;36825;-80
2023/12/27 02:27:50;;;;;;;31.30;16.07;;;5.70;99.90;;;;;;4998779;28;37371;-81
2023/12/27 02:30:18;;;;;;;25.97;13.93;;;5.80;99.90;;;;;;5004064;28;37641;-82
2023/12/27 02:32:45;;;;;;;34.77;16.93;;;5.80;99.90;;;;;;5024506;28;37029;-81
2023/12/27 02:35:12;;;;;;;38.17;17.27;;;5.80;99.90;;;;;;5027431;28;37427;-81
2023/12/27 02:37:38;;;;;;;36.57;17.07;;;5.90;99.90;;;;;;5001116;28;37739;-81
2023/12/27 02:40:08;;;;;;;29.63;14.40;;;5.90;99.90;;;;;;5006785;28;37443;-80
2023/12/27 02:42:37;;;;;;;25.33;15.50;;;5.90;99.90;;;;;;5005217;28;47076;-81
2023/12/27 02:45:05;;;;;;;38.77;18.40;;;5.90;99.90;;;;;;4994603;28;36603;-81
2023/12/27 02:47:31;;;;;;;31.60;17.73;;;5.90;99.90;;;;;;5000303;28;46948;-81
2023/12/27 02:49:57;;;;;;;35.10;16.37;;;5.90;99.90;;;;;;5024222;28;38797;-81
2023/12/27 02:52:23;;;;;;;30.53;15.50;;;6.00;99.90;;;;;;5019218;28;39538;-80
2023/12/27 02:54:49;;;;;;;27.77;14.40;;;5.90;99.90;;;;;;5001470;28;36260;-80
2023/12/27 02:57:15;;;;;;;41.70;18.77;;;6.00;99.90;;;;;;5003957;28;37892;-81
2023/12/27 02:59:41;;;;;;;37.23;19.73;;;6.00;99.90;;;;;;5016449;28;39742;-81
2023/12/27 03:02:08;;;;;;;30.87;16.13;;;6.10;99.90;;;;;;5003202;28;37387;-81
2023/12/27 03:04:34;;;;;;;42.93;21.30;;;6.00;99.90;;;;;;4999475;28;36128;-80
2023/12/27 03:07:01;;;;;;;32.43;17.83;;;6.00;99.90;;;;;;5000226;28;37798;-80
2023/12/27 03:09:27;;;;;;;37.53;19.53;;;6.00;99.90;;;;;;4994126;28;46590;-81
2023/12/27 03:11:53;;;;;;;35.90;18.30;;;6.00;99.90;;;;;;4997214;28;37098;-80
2023/12/27 03:14:19;;;;;;;40.87;17.77;;;6.10;99.90;;;;;;4998209;28;36733;-81
2023/12/27 03:16:45;;;;;;;36.57;16.13;;;6.10;99.90;;;;;;5005414;28;37979;-81
2023/12/27 03:19:22;;;;;;;34.87;17.37;;;6.10;99.90;;;;;;5008247;28;37148;-81
2023/12/27 03:21:49;;;;;;;41.13;19.43;;;6.10;99.90;;;;;;5011309;28;36937;-81
2023/12/27 03:24:18;;;;;;;30.20;16.77;;;6.10;99.90;;;;;;5016239;28;36368;-81
2023/12/27 03:26:45;;;;;;;40.07;17.80;;;6.10;99.90;;;;;;5014206;28;37822;-81
2023/12/27 03:29:11;;;;;;;30.57;15.80;;;6.10;99.90;;;;;;5010311;28;37057;-81
2023/12/27 03:31:37;;;;;;;29.70;17.17;;;6.10;99.90;;;;;;5002898;28;36873;-81
2023/12/27 03:34:03;;;;;;;29.03;15.10;;;6.20;99.90;;;;;;5022035;28;37547;-81
2023/12/27 03:36:29;;;;;;;34.53;16.20;;;6.20;99.90;;;;;;5013864;28;38952;-81
2023/12/27 03:38:55;;;;;;;25.47;14.97;;;6.20;99.90;;;;;;5022243;28;38743;-80
2023/12/27 03:41:22;;;;;;;35.73;16.10;;;6.20;99.90;;;;;;4996158;28;39933;-81
2023/12/27 03:43:48;;;;;;;34.87;17.83;;;6.20;99.90;;;;;;5004865;28;36071;-81
2023/12/27 03:46:17;;;;;;;38.43;16.03;;;6.30;99.90;;;;;;5008422;28;37814;-81
2023/12/27 03:48:43;;;;;;;36.17;17.00;;;6.30;99.90;;;;;;5003324;28;38776;-81
2023/12/27 03:51:11;;;;;;;33.57;16.67;;;6.30;99.90;;;;;;4998912;28;37184;-81
2023/12/27 03:53:37;;;;;;;36.07;14.83;;;6.30;99.90;;;;;;5021714;28;37787;-81
2023/12/27 03:56:08;;;;;;;36.67;16.87;;;6.30;99.90;;;;;;5000161;28;38426;-81
2023/12/27 03:58:34;;;;;;;37.33;16.83;;;6.40;99.90;;;;;;5001790;28;38041;-81
2023/12/27 04:01:00;;;;;;;30.57;14.67;;;6.40;99.90;;;;;;5021221;28;38889;-80
2023/12/27 04:03:26;;;;;;;34.83;16.53;;;6.40;99.90;;;;;;5028606;28;37599;-82
2023/12/27 04:05:52;;;;;;;32.33;13.63;;;6.40;99.90;;;;;;5011363;28;37793;-78
2023/12/27 04:08:18;;;;;;;40.80;15.73;;;6.40;99.90;;;;;;4984497;28;37353;-81
2023/12/27 04:10:50;;;;;;;45.30;17.73;;;6.40;99.90;;;;;;4997709;28;37058;-81
2023/12/27 04:13:18;;;;;;;31.85;13.40;;;6.50;99.90;;;;;;4982878;28;35590;-81
2023/12/27 04:15:44;;;;;;;42.47;15.83;;;6.50;99.90;;;;;;5004852;28;40017;-80
2023/12/27 04:18:12;;;;;;;45.07;17.30;;;6.50;99.90;;;;;;4984759;28;39934;-79
2023/12/27 04:20:41;;;;;;;34.87;14.50;;;6.50;99.90;;;;;;4987117;28;38353;-82
2023/12/27 04:23:25;;;;;;;37.90;15.40;;;6.50;99.90;;;;;;4982102;28;36453;-82
2023/12/27 04:25:51;;;;;;;32.27;12.13;;;6.50;99.90;;;;;;5006637;28;38706;-81
2023/12/27 04:28:17;;;;;;;39.50;12.70;;;6.60;99.90;;;;;;4987641;28;36763;-81
2023/12/27 04:30:43;;;;;;;29.27;12.03;;;6.60;99.90;;;;;;4985565;28;37907;-81
2023/12/27 04:33:10;;;;;;;28.30;11.73;;;6.60;99.90;;;;;;5001542;28;36895;-82
2023/12/27 04:35:42;;;;;;;32.67;11.40;;;6.70;99.90;;;;;;4988764;28;38771;-82
2023/12/27 04:38:13;;;;;;;;;;;6.70;99.90;;;;;;5014303;28;38602;-82
2023/12/27 04:40:44;;;;;;;36.43;10.53;;;6.70;99.90;;;;;;4987775;28;36763;-81
2023/12/27 04:43:11;;;;;;;35.60;11.60;;;6.80;99.90;;;;;;5002287;28;37068;-82
2023/12/27 04:45:37;;;;;;;28.93;10.97;;;6.80;99.90;;;;;;5015206;28;39632;-81
2023/12/27 04:48:05;;;;;;;27.57;10.47;;;6.80;99.90;;;;;;5002883;28;38529;-81
2023/12/27 04:50:34;;;;;;;30.07;10.33;;;6.80;99.90;;;;;;5005766;28;37181;-82
2023/12/27 04:53:03;;;;;;;27.73;10.50;;;6.80;99.90;;;;;;4993195;28;36752;-83
2023/12/27 04:55:29;;;;;;;31.90;11.73;;;6.70;99.90;;;;;;5028820;28;49672;-82
2023/12/27 04:57:59;;;;;;;32.70;12.53;;;6.70;99.90;;;;;;5030543;28;38469;-82
2023/12/27 05:00:25;;;;;;;32.77;11.83;;;6.70;99.90;;;;;;5029082;28;38393;-82
2023/12/27 05:02:52;;;;;;;23.57;10.40;;;6.70;99.90;;;;;;5005413;28;36819;-82
2023/12/27 05:05:18;;;;;;;33.60;11.00;;;6.70;99.90;;;;;;5014593;28;37946;-82
2023/12/27 05:07:44;;;;;;;27.90;10.17;;;6.70;99.90;;;;;;5009704;28;38151;-81
2023/12/27 05:10:11;;;;;;;27.13;10.43;;;6.70;99.90;;;;;;4995531;28;37292;-82
2023/12/27 05:12:37;;;;;;;29.03;11.00;;;6.70;99.90;;;;;;4986412;28;37544;-81
2023/12/27 05:15:03;;;;;;;30.33;12.30;;;6.70;99.90;;;;;;5004691;28;39086;-81
2023/12/27 05:17:29;;;;;;;27.80;10.77;;;6.70;99.90;;;;;;5018531;28;38152;-81
2023/12/27 05:19:55;;;;;;;33.73;10.83;;;6.70;99.90;;;;;;4987157;28;37108;-81
2023/12/27 05:22:21;;;;;;;33.10;11.23;;;6.70;99.90;;;;;;4997635;28;36281;-81
2023/12/27 05:24:51;;;;;;;21.60;9.13;;;6.70;99.90;;;;;;5010469;28;38777;-81
2023/12/27 05:30:04;;;;;;;30.30;9.70;;;6.70;99.90;;;;;;5024432;28;38689;-82
2023/12/27 05:32:30;;;;;;;36.17;10.23;;;6.70;99.90;;;;;;5026134;28;37349;-81
2023/12/27 05:34:56;;;;;;;30.20;9.90;;;6.70;99.90;;;;;;5006214;28;37957;-82
2023/12/27 05:37:22;;;;;;;27.93;9.33;;;6.80;99.90;;;;;;5004433;28;37466;-81
2023/12/27 05:39:48;;;;;;;26.73;10.47;;;6.80;99.90;;;;;;5001377;28;37417;-81
2023/12/27 05:42:14;;;;;;;38.97;13.17;;;6.80;99.90;;;;;;5001957;28;36195;-80
2023/12/27 05:44:41;;;;;;;32.53;11.23;;;6.80;99.90;;;;;;5000277;28;39667;-81
2023/12/27 05:47:08;;;;;;;31.10;10.57;;;6.80;99.90;;;;;;5001884;28;38365;-80
2023/12/27 05:49:38;;;;;;;40.20;12.07;;;6.80;99.90;;;;;;5001447;28;38097;-81
2023/12/27 05:52:04;;;;;;;32.93;11.93;;;6.90;99.90;;;;;;4996979;28;37349;-81
2023/12/27 05:54:30;;;;;;;29.33;9.43;;;6.90;99.90;;;;;;5015893;28;38687;-80
2023/12/27 05:56:56;;;;;;;41.10;12.63;;;6.90;99.90;;;;;;5002937;28;38789;-81
2023/12/27 05:59:22;;;;;;;35.93;11.37;;;6.90;99.90;;;;;;5004862;28;36690;-81
2023/12/27 06:01:52;;;;;;;39.17;12.10;;;6.90;99.90;;;;;;4995368;28;37531;-81
2023/12/27 06:04:19;;;;;;;40.33;12.93;;;6.90;99.90;;;;;;5002521;28;38256;-82
2023/12/27 06:06:49;;;;;;;36.00;12.43;;;6.90;99.90;;;;;;5007669;28;37362;-81
2023/12/27 06:09:18;;;;;;;42.73;11.80;;;6.90;99.90;;;;;;5008466;28;37449;-79
2023/12/27 06:11:45;;;;;;;33.03;10.90;;;6.90;99.90;;;;;;5020991;28;38008;-79
2023/12/27 06:14:14;;;;;;;28.60;10.70;;;6.90;99.90;;;;;;5013493;28;38798;-80
2023/12/27 06:16:40;;;;;;;30.47;11.73;;;6.90;99.90;;;;;;5006426;28;38430;-79
2023/12/27 06:19:07;;;;;;;37.13;12.10;;;6.90;99.90;;;;;;5004119;28;36611;-78
2023/12/27 06:21:34;;;;;;;28.63;12.60;;;6.90;99.90;;;;;;4996168;28;37515;-79
2023/12/27 06:24:07;;;;;;;28.70;12.93;;;7.00;99.90;;;;;;5006951;28;37139;-79
2023/12/27 06:26:33;;;;;;;33.23;13.60;;;7.00;99.90;;;;;;5021073;28;49285;-80
2023/12/27 06:28:59;;;;;;;35.60;15.27;;;6.90;99.90;;;;;;5028360;28;38731;-80
2023/12/27 06:31:25;;;;;;;37.43;14.47;;;7.10;99.90;;;;;;5005902;28;36067;-80
2023/12/27 06:33:51;;;;;;;27.63;12.67;;;7.00;99.90;;;;;;5006626;28;37642;-79
2023/12/27 06:36:17;;;;;;;32.43;14.27;;;7.00;99.90;;;;;;5008472;28;37074;-80
2023/12/27 06:38:46;;;;;;;25.33;12.43;;;7.00;99.90;;;;;;5004234;28;36851;-80
2023/12/27 06:41:12;;;;;;;26.30;12.13;;;7.00;99.90;;;;;;4996856;28;35915;-80
2023/12/27 06:43:39;;;;;;;35.47;17.60;;;7.00;99.90;;;;;;5004519;28;38344;-79
2023/12/27 06:46:05;;;;;;;32.20;16.87;;;7.10;99.90;;;;;;5022391;28;38921;-79
2023/12/27 06:48:31;;;;;;;24.57;14.17;;;7.10;99.90;;;;;;5020600;28;39607;-80
2023/12/27 06:50:57;;;;;;;20.57;12.93;;;7.10;99.90;;;;;;5003159;28;36615;-81
2023/12/27 06:53:24;;;;;;;32.70;17.07;;;7.10;99.90;;;;;;4994146;28;38554;-82
2023/12/27 06:55:51;;;;;;;22.67;15.13;;;7.10;99.90;;;;;;5014163;28;37481;-80
2023/12/27 06:58:17;;;;;;;26.87;15.17;;;7.20;99.90;;;;;;4996921;28;37687;-82
2023/12/27 07:00:43;;;;;;;25.70;15.77;;;7.20;99.90;;;;;;5011501;28;39480;-81
2023/12/27 07:03:09;;;;;;;23.37;13.60;;;7.20;99.90;;;;;;5005475;28;39191;-80
2023/12/27 07:05:36;;;;;;;26.53;18.20;;;7.20;99.90;;;;;;4989193;28;37509;-80
2023/12/27 07:08:03;;;;;;;22.53;16.40;;;7.20;99.90;;;;;;4981399;28;37374;-80
2023/12/27 07:10:29;;;;;;;21.40;15.17;;;7.20;99.90;;;;;;5009479;28;36511;-81
2023/12/27 07:12:55;;;;;;;16.30;13.33;;;7.20;99.90;;;;;;4993021;28;39068;-80
2023/12/27 07:15:21;;;;;;;17.60;14.03;;;7.20;99.90;;;;;;4988727;28;36902;-80
2023/12/27 07:17:47;;;;;;;18.90;13.97;;;7.20;99.90;;;;;;4992615;28;37145;-80
2023/12/27 07:20:14;;;;;;;24.43;17.53;;;7.20;99.90;;;;;;5000336;28;36393;-81
2023/12/27 07:22:40;;;;;;;21.67;16.47;;;7.30;99.90;;;;;;4994025;28;38194;-81
2023/12/27 07:25:06;;;;;;;28.23;19.83;;;7.30;99.90;;;;;;5006857;28;38610;-81
2023/12/27 07:27:32;;;;;;;21.50;14.87;;;7.30;99.90;;;;;;5021378;28;39278;-81
2023/12/27 07:29:59;;;;;;;21.37;16.50;;;7.40;99.90;;;;;;4998730;28;36304;-80
2023/12/27 07:32:25;;;;;;;25.50;18.43;;;7.40;99.90;;;;;;5007564;28;38851;-81
2023/12/27 07:34:57;;;;;;;27.40;19.37;;;7.40;99.90;;;;;;5014325;28;39219;-81
2023/12/27 07:37:26;;;;;;;27.15;18.98;;;7.50;99.90;;;;;;5003364;28;37083;-81
2023/12/27 07:39:53;;;;;;;29.30;21.63;;;7.50;99.90;;;;;;5013421;28;38109;-81
2023/12/27 07:42:19;;;;;;;23.23;18.40;;;7.50;99.90;;;;;;5015113;28;40370;-81
2023/12/27 07:44:45;;;;;;;22.67;19.03;;;7.50;99.90;;;;;;4997842;28;37636;-81
2023/12/27 07:47:11;;;;;;;27.37;21.77;;;7.60;99.90;;;;;;5018207;28;38292;-81
2023/12/27 07:49:38;;;;;;;32.43;23.57;;;7.60;99.90;;;;;;5002586;28;38051;-80
2023/12/27 07:52:04;;;;;;;24.33;19.70;;;7.60;99.90;;;;;;4999144;28;37761;-80
2023/12/27 07:54:31;;;;;;;38.10;24.40;;;7.70;99.90;;;;;;5004698;28;38940;-81
2023/12/27 07:56:57;;;;;;;32.10;21.93;;;7.70;99.90;;;;;;5001812;28;37023;-80
2023/12/27 07:59:24;;;;;;;30.90;23.40;;;7.70;99.90;;;;;;5015437;28;37560;-81
2023/12/27 08:01:51;;;;;;;35.63;25.50;;;7.80;99.90;;;;;;5019841;28;40147;-80
2023/12/27 08:04:17;;;;;;;41.20;24.77;;;7.80;99.90;;;;;;5005596;28;38376;-80
2023/12/27 08:06:43;;;;;;;31.50;24.10;;;7.90;99.90;;;;;;5012572;28;38734;-80
2023/12/27 08:09:10;;;;;;;34.17;25.27;;;7.90;99.90;;;;;;5009104;28;38468;-80
2023/12/27 08:11:36;;;;;;;35.63;26.20;;;8.00;99.90;;;;;;4991115;28;36105;-80
2023/12/27 08:14:03;;;;;;;44.63;29.00;;;8.10;99.90;;;;;;5008112;28;38755;-80
2023/12/27 08:16:29;;;;;;;40.50;27.23;;;8.20;99.90;;;;;;4991876;28;37140;-81
2023/12/27 08:18:55;;;;;;;45.20;29.13;;;8.20;99.90;;;;;;4990891;28;37359;-80
2023/12/27 08:21:21;;;;;;;44.67;28.90;;;8.30;99.90;;;;;;4986280;28;38796;-80
2023/12/27 08:23:47;;;;;;;45.60;28.73;;;8.30;99.90;;;;;;4976411;28;37712;-80
2023/12/27 08:26:14;;;;;;;45.93;30.57;;;8.40;99.90;;;;;;4961215;28;38924;-79
2023/12/27 08:28:40;;;;;;;45.47;29.33;;;8.40;99.90;;;;;;5005363;28;37361;-80
2023/12/27 08:31:07;;;;;;;52.23;31.07;;;8.50;99.90;;;;;;4973583;28;36443;-81
2023/12/27 08:33:36;;;;;;;49.87;30.97;;;8.50;99.90;;;;;;4992417;28;37374;-80
2023/12/27 08:36:03;;;;;;;43.20;28.90;;;8.50;99.90;;;;;;4981502;28;39074;-80
2023/12/27 08:38:30;;;;;;;45.63;28.80;;;8.50;99.90;;;;;;4985909;28;37632;-80
2023/12/27 08:40:57;;;;;;;53.40;31.80;;;8.60;99.90;;;;;;4984938;28;38862;-80
2023/12/27 08:43:29;;;;;;;43.30;29.63;;;8.60;99.90;;;;;;4989879;28;37531;-79
2023/12/27 08:45:56;;;;;;;42.42;30.23;;;8.60;99.90;;;;;;4991150;28;37202;-80
2023/12/27 08:48:22;;;;;;;55.97;31.87;;;8.70;99.90;;;;;;5008407;28;37349;-80
2023/12/27 08:50:48;;;;;;;57.00;33.40;;;8.70;99.90;;;;;;5004652;28;38553;-80
2023/12/27 08:53:15;;;;;;;44.07;29.77;;;8.70;99.90;;;;;;4988892;28;37582;-80
2023/12/27 08:55:41;;;;;;;47.43;31.43;;;8.80;99.90;;;;;;4990718;28;37146;-80
2023/12/27 08:58:09;;;;;;;52.63;31.40;;;8.80;99.90;;;;;;4998861;28;36074;-80
2023/12/27 09:00:35;;;;;;;51.77;29.83;;;8.80;99.90;;;;;;4991961;28;38044;-79
2023/12/27 09:03:01;;;;;;;48.40;29.50;;;8.80;99.90;;;;;;5000194;28;37262;-80
2023/12/27 09:05:27;;;;;;;52.20;29.50;;;8.90;99.90;;;;;;4993782;28;36813;-80
2023/12/27 09:07:54;;;;;;;50.00;29.00;;;8.90;99.90;;;;;;5008806;28;38387;-79
2023/12/27 09:10:20;;;;;;;47.93;29.80;;;8.90;99.90;;;;;;4982581;28;37725;-80
2023/12/27 09:12:46;;;;;;;43.70;26.73;;;8.90;99.90;;;;;;5005303;28;37981;-80
2023/12/27 09:15:14;;;;;;;41.93;28.97;;;8.90;99.90;;;;;;4992247;28;36999;-80
2023/12/27 09:17:40;;;;;;;44.43;27.80;;;8.90;99.90;;;;;;4994297;28;37491;-80
2023/12/27 09:20:07;;;;;;;37.23;26.77;;;9.00;99.90;;;;;;4993736;28;37662;-80
2023/12/27 09:22:34;;;;;;;47.67;26.33;;;9.00;99.90;;;;;;5012837;28;38410;-80
2023/12/27 09:25:00;;;;;;;37.60;26.13;;;9.00;99.90;;;;;;4996675;28;38808;-80
2023/12/27 09:27:27;;;;;;;41.97;25.80;;;9.00;99.90;;;;;;5003318;28;36869;-80
2023/12/27 09:29:53;;;;;;;39.70;26.13;;;9.00;99.90;;;;;;4993111;28;39961;-80
2023/12/27 09:32:19;;;;;;;42.00;27.47;;;9.10;99.90;;;;;;4999255;28;38856;-80
2023/12/27 09:34:45;;;;;;;36.37;24.00;;;9.10;99.90;;;;;;5002770;28;37232;-80
2023/12/27 09:37:12;;;;;;;36.67;25.67;;;9.10;99.90;;;;;;4996359;28;37604;-80
2023/12/27 09:39:38;;;;;;;45.17;27.90;;;9.10;99.90;;;;;;5000486;28;37776;-81
2023/12/27 09:42:04;;;;;;;38.33;25.30;;;9.10;99.90;;;;;;5017679;28;38686;-81
2023/12/27 09:44:34;;;;;;;32.93;23.90;;;9.10;99.90;;;;;;5000412;28;37956;-81
2023/12/27 09:47:02;;;;;;;42.53;26.37;;;9.10;99.90;;;;;;5007306;28;37109;-81
2023/12/27 09:49:30;;;;;;;32.67;23.90;;;9.20;99.90;;;;;;5010672;28;47140;-80
2023/12/27 09:51:58;;;;;;;42.50;25.97;;;9.30;99.90;;;;;;5021049;28;38386;-81
2023/12/27 09:54:24;;;;;;;32.07;23.30;;;9.30;99.90;;;;;;5001408;28;37282;-81
2023/12/27 09:56:51;;;;;;;32.70;22.93;;;9.30;99.90;;;;;;4990744;28;36547;-80
2023/12/27 09:59:26;;;;;;;34.60;20.80;;;9.40;99.90;;;;;;5001531;28;37779;-81
2023/12/27 10:02:01;;;;;;;27.10;19.47;;;9.40;99.90;;;;;;5000668;28;39198;-81
2023/12/27 10:04:46;;;;;;;29.90;20.23;;;9.50;99.90;;;;;;5002878;28;37454;-81
2023/12/27 10:07:14;;;;;;;32.27;19.67;;;9.60;99.90;;;;;;5001048;28;37584;-81
2023/12/27 10:09:40;;;;;;;23.87;17.77;;;9.60;99.90;;;;;;4995335;28;37804;-82
2023/12/27 10:12:07;;;;;;;22.13;16.57;;;9.70;99.90;;;;;;4998949;28;37122;-82
2023/12/27 10:14:36;;;;;;;30.27;16.73;;;9.70;99.90;;;;;;4997181;28;37525;-82
2023/12/27 10:17:05;;;;;;;24.63;15.47;;;9.80;99.90;;;;;;5013074;28;38541;-81
2023/12/27 10:19:44;;;;;;;24.83;14.60;;;9.80;99.90;;;;;;5014239;28;37851;-81
2023/12/27 10:22:12;;;;;;;23.50;14.13;;;9.80;99.90;;;;;;5025653;28;39005;-81
2023/12/27 10:24:39;;;;;;;23.33;12.97;;;9.90;99.90;;;;;;4996154;28;38221;-81
2023/12/27 10:27:08;;;;;;;23.70;13.17;;;9.90;99.90;;;;;;5014901;28;36549;-81
2023/12/27 10:29:35;;;;;;;17.67;12.20;;;9.90;99.90;;;;;;5008224;28;39060;-81
2023/12/27 10:32:07;;;;;;;23.20;11.77;;;9.90;99.90;;;;;;4997085;28;37754;-82
2023/12/27 10:34:34;;;;;;;;;;;10.00;99.90;;;;;;5017722;28;46960;-82
2023/12/27 10:37:01;;;;;;;18.30;10.20;;;10.00;99.90;;;;;;4999780;28;34448;-79
2023/12/27 10:39:27;;;;;;;18.40;10.97;;;10.00;99.90;;;;;;4999425;28;46475;-81
2023/12/27 10:41:53;;;;;;;16.60;9.93;;;10.10;99.90;;;;;;5004754;28;37894;-80
2023/12/27 10:44:20;;;;;;;17.87;9.40;;;10.10;99.90;;;;;;4995774;28;38092;-80
2023/12/27 10:46:53;;;;;;;20.50;9.27;;;10.10;99.90;;;;;;5003355;28;37036;-80
2023/12/27 10:49:24;;;;;;;17.88;9.30;;;10.10;99.90;;;;;;5008134;28;38746;-83
2023/12/27 10:51:53;;;;;;;17.60;8.20;;;10.20;99.90;;;;;;5012515;28;38467;-82
2023/12/27 10:54:21;;;;;;;15.43;7.30;;;10.20;99.90;;;;;;4999766;28;37171;-82
2023/12/27 10:56:50;;;;;;;15.30;7.57;;;10.30;99.90;;;;;;5001856;28;37251;-80
2023/12/27 10:59:17;;;;;;;15.60;7.40;;;10.30;99.90;;;;;;5015844;28;37891;-79
2023/12/27 11:01:50;;;;;;;11.80;6.87;;;10.30;99.90;;;;;;5027478;28;37754;-81
2023/12/27 11:04:19;;;;;;;17.33;7.50;;;10.30;99.90;;;;;;5018200;28;37176;-80
2023/12/27 11:06:47;;;;;;;14.53;7.27;;;10.30;99.90;;;;;;4998714;28;36324;-80
2023/12/27 11:09:15;;;;;;;13.97;6.70;;;10.40;99.90;;;;;;4983131;28;37614;-79
2023/12/27 11:11:43;;;;;;;16.07;6.50;;;10.40;99.90;;;;;;5013433;28;38711;-79
2023/12/27 11:14:11;;;;;;;15.73;7.50;;;10.40;99.90;;;;;;4998749;28;37227;-80
2023/12/27 11:16:39;;;;;;;11.63;6.23;;;10.40;99.90;;;;;;5012910;28;38829;-79
2023/12/27 11:19:07;;;;;;;12.93;6.40;;;10.40;99.90;;;;;;4998652;28;37842;-80
2023/12/27 11:21:34;;;;;;;15.67;6.70;;;10.40;99.90;;;;;;5012891;28;38793;-80
2023/12/27 11:24:03;;;;;;;12.20;6.90;;;10.40;99.90;;;;;;5003588;28;38855;-79
2023/12/27 11:26:36;;;;;;;15.07;6.63;;;10.40;99.90;;;;;;4997064;28;47248;-78
2023/12/27 11:29:09;;;;;;;;;;;10.40;99.90;;;;;;4986497;28;37793;-78
2023/12/27 11:31:39;;;;;;;14.13;6.27;;;10.40;99.90;;;;;;5011172;22;39371;-78
2023/12/27 11:34:05;;;;;;;13.93;6.20;;;10.40;99.90;;;;;;5002456;28;36758;-78
2023/12/27 11:36:33;;;;;;;10.37;6.40;;;10.50;99.90;;;;;;5001730;28;37945;-78
2023/12/27 11:39:15;;;;;;;12.97;6.23;;;10.50;99.90;;;;;;5002200;28;38334;-77
2023/12/27 11:41:42;;;;;;;11.90;5.90;;;10.50;99.90;;;;;;4997305;28;48633;-77
2023/12/27 11:44:08;;;;;;;14.23;7.37;;;10.50;99.90;;;;;;4995061;28;37906;-78
2023/12/27 11:46:34;;;;;;;13.90;6.57;;;10.50;99.90;;;;;;5002786;28;37183;-77
2023/12/27 11:49:01;;;;;;;16.23;6.20;;;10.50;99.90;;;;;;5001482;28;39325;-78
2023/12/27 11:51:34;;;;;;;14.90;6.93;;;10.50;99.90;;;;;;5003199;28;46994;-77
2023/12/27 11:54:02;;;;;;;13.73;6.23;;;10.50;99.90;;;;;;5001642;28;38935;-78
2023/12/27 11:56:30;;;;;;;14.67;6.27;;;10.50;99.90;;;;;;4997706;28;45208;-78
2023/12/27 11:58:57;;;;;;;13.20;6.37;;;10.60;99.90;;;;;;5004106;28;39095;-78
2023/12/27 12:01:31;;;;;;;9.60;6.03;;;10.60;99.90;;;;;;5019492;28;39077;-78
2023/12/27 12:04:12;;;;;;;12.97;6.10;;;10.60;99.90;;;;;;4997748;28;38911;-78
2023/12/27 12:06:51;;;;;;;12.20;6.40;;;10.60;99.90;;;;;;5000784;28;49703;-77
2023/12/27 12:09:19;;;;;;;16.47;7.27;;;10.60;99.90;;;;;;4999863;28;39569;-76
2023/12/27 12:11:45;;;;;;;12.10;5.80;;;10.60;99.90;;;;;;5003457;28;37297;-78
2023/12/27 12:14:12;;;;;;;15.53;6.33;;;10.60;99.90;;;;;;4997529;28;36926;-78
2023/12/27 12:16:41;;;;;;;14.67;6.63;;;10.60;99.90;;;;;;5000403;28;38113;-78
2023/12/27 12:19:11;;;;;;;10.77;5.77;;;10.60;99.90;;;;;;5019337;28;39102;-78
2023/12/27 12:21:38;;;;;;;14.83;6.43;;;10.70;99.90;;;;;;5000801;28;39070;-78
2023/12/27 12:24:08;;;;;;;10.73;5.40;;;10.70;99.90;;;;;;5004847;28;37868;-78
2023/12/27 12:26:35;;;;;;;10.30;6.70;;;10.70;99.90;;;;;;5017261;28;39160;-78
2023/12/27 12:29:03;;;;;;;17.30;6.73;;;10.70;99.90;;;;;;5021748;28;39382;-77
2023/12/27 12:31:32;;;;;;;12.67;5.83;;;10.70;99.90;;;;;;4997442;28;37925;-78
2023/12/27 12:33:58;;;;;;;11.10;5.77;;;10.70;99.90;;;;;;5009522;28;38122;-78
2023/12/27 12:36:25;;;;;;;11.27;5.33;;;10.70;99.90;;;;;;5019143;28;38831;-78
2023/12/27 12:38:53;;;;;;;13.83;5.80;;;10.70;99.90;;;;;;5006969;28;39916;-77
2023/12/27 12:41:19;;;;;;;15.60;5.57;;;10.70;99.90;;;;;;5003549;28;38297;-77
2023/12/27 12:43:45;;;;;;;14.03;5.67;;;10.70;99.90;;;;;;5009489;28;38656;-78
2023/12/27 12:46:13;;;;;;;14.23;5.67;;;10.70;99.90;;;;;;5009513;28;37630;-78
2023/12/27 12:48:40;;;;;;;10.57;5.90;;;10.70;99.90;;;;;;5010381;28;38313;-78
2023/12/27 12:51:10;;;;;;;13.93;6.57;;;10.70;99.90;;;;;;5005304;28;39300;-77